Time;durP1;ratioP1;P1;durP2;ratioP2;P2;SDS_P1;SDS_P2;PMS_P1;PMS_P2;Temp;Humidity;BMP_temperature;BMP_pressure;BME280_temperature;BME280_humidity;BME280_pressure;Samples;Min_cycle;Max_cycle;Signal;HPM_P1;HPM_P2
2021/07/15 00:04:05;;;;;;;3.67;1.55;;;;;;;18.18;89.09;98582.06;4340221;81;21037;-83
2021/07/15 00:10:18;;;;;;;4.53;1.45;;;;;;;18.10;89.55;98595.29;4340933;81;21029;-82
2021/07/15 00:16:18;;;;;;;5.97;2.02;;;;;;;18.05;90.03;98594.45;4351426;80;21032;-81
2021/07/15 00:22:19;;;;;;;4.50;2.72;;;;;;;18.11;90.80;98637.03;4344312;81;20962;-83
2021/07/15 00:28:29;;;;;;;7.00;2.70;;;;;;;18.14;92.69;98684.64;4346697;81;21063;-81
2021/07/15 00:34:30;;;;;;;4.70;2.17;;;;;;;18.16;93.08;98723.78;4344150;81;21109;-81
2021/07/15 00:40:40;;;;;;;5.80;2.87;;;;;;;18.38;93.05;98755.34;4299881;81;21062;-81
2021/07/15 00:46:41;;;;;;;6.47;3.02;;;;;;;18.43;92.98;98752.66;4312263;81;21049;-81
2021/07/15 00:52:43;;;;;;;6.78;3.40;;;;;;;18.40;92.78;98747.98;4271453;82;21038;-81
2021/07/15 00:58:45;;;;;;;7.08;3.10;;;;;;;18.44;92.99;98760.54;4274516;82;21054;-81
2021/07/15 01:04:46;;;;;;;8.38;4.00;;;;;;;18.38;92.84;98774.74;4276227;82;21055;-83
2021/07/15 01:11:17;;;;;;;10.08;4.47;;;;;;;18.35;92.83;98734.61;4277914;82;21137;-85
2021/07/15 01:17:25;;;;;;;9.40;4.37;;;;;;;18.33;93.34;98676.85;4271077;82;21078;-85
2021/07/15 01:24:07;;;;;;;10.98;4.70;;;;;;;18.41;93.85;98674.11;4269317;82;21572;-85
2021/07/15 01:30:24;;;;;;;10.20;5.37;;;;;;;18.55;94.60;98658.50;4270082;82;21078;-85
2021/07/15 01:36:26;;;;;;;11.48;5.22;;;;;;;18.59;93.96;98630.66;4275893;82;21063;-86
2021/07/15 01:42:28;;;;;;;11.53;5.67;;;;;;;18.61;94.27;98647.65;4234575;82;20994;-84
2021/07/15 01:48:30;;;;;;;8.08;5.47;;;;;;;18.56;95.36;98682.22;4223377;83;21097;-86
2021/07/15 01:54:32;;;;;;;12.68;6.22;;;;;;;18.52;95.12;98646.11;4238728;83;21745;-84
2021/07/15 02:00:35;;;;;;;12.00;6.28;;;;;;;18.53;96.21;98714.18;4223744;83;21573;-84
2021/07/15 02:06:41;;;;;;;9.73;6.08;;;;;;;18.53;95.98;98677.55;4225546;83;21062;-85
2021/07/15 02:12:44;;;;;;;15.93;5.87;;;;;;;18.55;95.98;98666.03;4232188;83;22373;-82
2021/07/15 02:18:47;;;;;;;12.73;6.58;;;;;;;18.61;96.64;98647.05;4240674;81;22358;-82
2021/07/15 02:24:49;;;;;;;14.33;6.85;;;;;;;18.66;96.24;98637.42;4240806;82;21002;-82
2021/07/15 02:30:55;;;;;;;15.88;7.25;;;;;;;18.62;96.26;98641.66;4240277;82;21476;-82
2021/07/15 02:37:00;;;;;;;15.00;7.53;;;;;;;18.59;96.38;98630.06;4246145;82;21580;-81
2021/07/15 02:43:04;;;;;;;9.50;6.15;;;;;;;18.55;96.57;98615.53;4244735;82;21021;-83
2021/07/15 02:49:05;;;;;;;11.68;6.37;;;;;;;18.52;98.26;98666.30;4250085;82;21141;-82
2021/07/15 02:55:10;;;;;;;19.75;7.22;;;;;;;18.46;97.75;98703.29;4243118;82;21498;-85
2021/07/15 03:01:22;;;;;;;9.63;6.60;;;;;;;18.48;97.60;98715.48;4249392;82;22537;-85
2021/07/15 03:07:26;;;;;;;15.70;7.78;;;;;;;18.50;97.66;98705.35;4258122;82;22078;-86
2021/07/15 03:13:29;;;;;;;14.63;7.60;;;;;;;18.56;97.84;98660.05;4253565;82;21619;-85
2021/07/15 03:19:32;;;;;;;12.50;7.97;;;;;;;18.60;98.17;98628.08;4250935;82;21093;-84
2021/07/15 03:25:34;;;;;;;15.63;8.73;;;;;;;18.67;98.29;98640.35;4228166;82;20957;-84
2021/07/15 03:31:36;;;;;;;17.30;7.62;;;;;;;18.73;98.61;98622.75;4305597;80;20999;-84
2021/07/15 03:37:40;;;;;;;19.20;9.13;;;;;;;18.75;98.71;98600.13;4282056;81;21535;-85
2021/07/15 03:43:46;;;;;;;16.25;9.23;;;;;;;18.77;98.73;98617.11;4114678;81;23804;-83
2021/07/15 03:49:48;;;;;;;18.80;9.23;;;;;;;18.76;98.86;98587.05;4043295;87;21073;-83
2021/07/15 03:55:51;;;;;;;17.37;8.98;;;;;;;18.77;98.97;98560.27;4038126;86;21601;-82
2021/07/15 04:02:05;;;;;;;15.83;8.28;;;;;;;18.77;99.17;98569.98;4046393;87;21567;-86
2021/07/15 04:08:07;;;;;;;17.60;8.15;;;;;;;18.79;99.34;98616.08;4052487;86;21512;-87
2021/07/15 04:14:13;;;;;;;20.72;8.95;;;;;;;18.86;99.71;98615.86;4053338;87;21450;-84
2021/07/15 04:20:21;;;;;;;20.77;8.77;;;;;;;18.89;99.65;98623.30;4047114;87;21602;-85
2021/07/15 04:26:28;;;;;;;20.62;9.35;;;;;;;18.91;99.36;98581.27;4015263;87;21161;-87
2021/07/15 04:32:57;;;;;;;25.10;8.80;;;;;;;18.87;99.70;98595.85;4046568;87;21062;-84
2021/07/15 04:39:01;;;;;;;15.32;9.13;;;;;;;18.89;100.00;98656.58;4087466;85;21066;-87
2021/07/15 04:45:03;;;;;;;14.38;8.53;;;;;;;18.93;100.00;98593.49;4094963;85;21125;-87
2021/07/15 04:51:10;;;;;;;15.68;9.98;;;;;;;18.96;100.00;98566.86;4091377;85;21035;-85
2021/07/15 04:57:11;;;;;;;16.37;10.30;;;;;;;19.04;100.00;98632.80;4055542;86;21035;-84
2021/07/15 05:03:32;;;;;;;14.50;9.85;;;;;;;19.14;100.00;98613.66;4104925;85;21126;-82
2021/07/15 05:09:34;;;;;;;14.98;9.03;;;;;;;19.30;100.00;98675.27;4094031;85;21063;-80
2021/07/15 05:15:35;;;;;;;14.20;7.90;;;;;;;19.32;100.00;98780.48;4097451;85;21541;-84
2021/07/15 05:21:37;;;;;;;12.58;7.72;;;;;;;19.27;100.00;98731.62;4096352;84;21079;-85
2021/07/15 05:27:38;;;;;;;16.25;8.73;;;;;;;19.21;100.00;98684.83;4050180;86;21083;-85
2021/07/15 05:33:39;;;;;;;14.50;8.23;;;;;;;19.12;100.00;98683.31;3950444;89;21102;-85
2021/07/15 05:39:44;;;;;;;22.73;9.60;;;;;;;19.05;100.00;98701.52;4072500;85;21107;-83
2021/07/15 05:45:44;;;;;;;17.37;9.15;;;;;;;19.02;100.00;98695.46;4046442;85;21091;-86
2021/07/15 05:51:46;;;;;;;18.90;10.32;;;;;;;19.02;100.00;98685.16;4051081;86;21120;-86
2021/07/15 05:57:47;;;;;;;14.05;9.08;;;;;;;19.00;100.00;98626.55;4051990;86;21114;-85
2021/07/15 06:03:49;;;;;;;16.65;8.90;;;;;;;19.02;100.00;98629.67;4055625;86;21091;-84
2021/07/15 06:09:50;;;;;;;13.60;9.75;;;;;;;19.09;100.00;98644.72;4050492;86;21073;-83
2021/07/15 06:15:51;;;;;;;14.53;9.73;;;;;;;19.15;100.00;98656.86;4051401;86;21083;-83
2021/07/15 06:21:56;;;;;;;12.40;9.30;;;;;;;19.20;100.00;98662.47;4046020;86;21062;-82
2021/07/15 06:28:14;;;;;;;;;;;;;;;;;;;;;
2021/07/15 06:34:10;;;;;;;17.00;10.58;;;;;;;19.42;100.00;98680.09;3961390;87;21540;-81
2021/07/15 06:40:12;;;;;;;19.02;9.80;;;;;;;19.50;100.00;98720.28;3907995;89;21124;-82
2021/07/15 06:46:13;;;;;;;19.55;10.15;;;;;;;19.50;100.00;98760.53;3912916;90;21545;-81
2021/07/15 06:52:15;;;;;;;16.82;12.07;;;;;;;19.52;100.00;98795.58;4054729;86;21094;-83
2021/07/15 06:58:17;;;;;;;32.28;11.05;;;;;;;19.46;100.00;98825.89;4057260;85;21135;-84
2021/07/15 07:04:19;;;;;;;12.60;3.58;;;;;;;19.36;100.00;98774.21;3984073;88;21094;-83
2021/07/15 07:10:21;;;;;;;5.35;3.25;;;;;;;18.90;100.00;98749.69;3927001;89;21139;-84
2021/07/15 07:16:22;;;;;;;7.80;3.80;;;;;;;18.45;100.00;98778.72;3911566;90;21038;-83
2021/07/15 07:22:23;;;;;;;9.03;4.78;;;;;;;18.16;100.00;98761.77;3924653;90;21075;-84
2021/07/15 07:28:26;;;;;;;8.90;5.22;;;;;;;18.11;100.00;98821.23;3922624;89;21534;-84
2021/07/15 07:34:28;;;;;;;8.58;4.60;;;;;;;17.97;100.00;98825.70;3905889;90;21192;-85
2021/07/15 07:40:32;;;;;;;6.53;4.50;;;;;;;17.85;100.00;98796.50;3909650;88;21119;-84
2021/07/15 07:46:34;;;;;;;8.40;4.03;;;;;;;17.85;100.00;98818.64;3917974;88;21631;-85
2021/07/15 07:52:35;;;;;;;8.53;3.90;;;;;;;17.90;100.00;98821.68;3934982;90;21151;-87
2021/07/15 07:58:37;;;;;;;3.95;2.80;;;;;;;18.02;100.00;98776.73;3981386;88;21100;-83
2021/07/15 08:04:40;;;;;;;5.20;2.60;;;;;;;18.24;100.00;98779.20;4077497;86;21044;-84
2021/07/15 08:10:41;;;;;;;5.28;2.33;;;;;;;18.37;100.00;98798.70;4059293;86;21087;-83
2021/07/15 08:16:42;;;;;;;4.60;2.72;;;;;;;18.26;100.00;98779.53;4052055;86;21078;-84
2021/07/15 08:22:44;;;;;;;6.60;3.42;;;;;;;18.23;100.00;98762.38;4079771;85;21074;-85
2021/07/15 08:28:46;;;;;;;7.17;3.47;;;;;;;18.17;100.00;98704.55;4063299;86;21063;-83
2021/07/15 08:34:47;;;;;;;5.47;3.35;;;;;;;18.14;100.00;98784.96;4072189;86;21185;-85
2021/07/15 08:40:51;;;;;;;3.50;3.02;;;;;;;18.07;100.00;98760.97;4083373;85;21050;-83
2021/07/15 08:46:54;;;;;;;5.95;3.77;;;;;;;18.21;100.00;98749.56;4094150;84;21082;-84
2021/07/15 08:52:55;;;;;;;7.15;4.15;;;;;;;18.44;100.00;98760.54;4103589;85;21415;-81
2021/07/15 08:59:00;;;;;;;10.78;5.03;;;;;;;18.58;100.00;98751.09;4101521;85;21075;-82
2021/07/15 09:05:05;;;;;;;8.23;4.95;;;;;;;18.65;100.00;98758.61;4354582;78;31190;-82
2021/07/15 09:11:12;;;;;;;6.67;3.95;;;;;;;18.73;100.00;98757.83;4468533;78;21069;-82
2021/07/15 09:17:15;;;;;;;;;;;;;;;18.77;100.00;98745.27;4468353;78;21007;-81
2021/07/15 09:23:17;;;;;;;7.20;4.30;;;;;;;18.84;100.00;98764.51;4464071;78;20144;-82
2021/07/15 09:29:19;;;;;;;9.05;4.67;;;;;;;18.84;100.00;98794.39;4449098;78;21003;-82
2021/07/15 09:35:42;;;;;;;10.40;4.58;;;;;;;18.88;100.00;98785.39;4466855;78;20990;-82
2021/07/15 09:41:45;;;;;;;8.23;5.85;;;;;;;18.94;100.00;98810.59;4396443;78;21043;-85
2021/07/15 09:47:48;;;;;;;6.67;4.87;;;;;;;19.06;100.00;98802.34;4385412;79;21090;-82
2021/07/15 09:53:49;;;;;;;6.87;5.35;;;;;;;19.17;100.00;98787.58;4380470;79;20983;-83
2021/07/15 09:59:51;;;;;;;6.85;5.95;;;;;;;19.32;100.00;98770.77;4379760;79;21097;-83
2021/07/15 10:05:54;;;;;;;8.28;6.95;;;;;;;19.52;100.00;98769.20;4393418;79;21026;-82
2021/07/15 10:11:56;;;;;;;8.63;7.12;;;;;;;19.70;100.00;98761.16;4381356;79;21023;-82
2021/07/15 10:17:58;;;;;;;7.60;5.80;;;;;;;19.82;100.00;98750.08;4379018;79;21653;-82
2021/07/15 10:24:15;;;;;;;7.90;5.42;;;;;;;19.94;100.00;98747.13;4394300;79;21058;-83
2021/07/15 10:30:17;;;;;;;8.25;6.08;;;;;;;20.12;100.00;98755.09;4381046;79;22171;-82
2021/07/15 10:36:20;;;;;;;9.15;5.78;;;;;;;20.32;100.00;98734.66;4383163;79;21542;-82
2021/07/15 10:42:21;;;;;;;10.30;6.20;;;;;;;20.44;100.00;98731.12;4386592;79;21026;-82
2021/07/15 10:48:25;;;;;;;14.73;7.47;;;;;;;20.55;100.00;98735.72;4377823;79;21043;-82
2021/07/15 10:54:27;;;;;;;12.85;8.20;;;;;;;21.04;100.00;98743.78;4391260;79;20968;-82
2021/07/15 11:00:29;;;;;;;13.53;8.60;;;;;;;21.88;100.00;98745.52;4384417;79;21766;-82
2021/07/15 11:06:44;;;;;;;15.05;8.23;;;;;;;22.38;100.00;98755.64;4392829;79;21089;-82
2021/07/15 11:13:03;;;;;;;18.17;8.83;;;;;;;22.56;100.00;98735.42;4389485;79;21030;-83
2021/07/15 11:19:07;;;;;;;15.30;9.33;;;;;;;22.56;99.83;98736.22;4370244;79;21062;-84
2021/07/15 11:25:11;;;;;;;17.37;10.03;;;;;;;22.71;100.00;98729.41;4388615;79;21475;-82
2021/07/15 11:31:17;;;;;;;16.52;9.15;;;;;;;22.87;100.00;98727.13;4408397;79;21018;-85
2021/07/15 11:37:35;;;;;;;16.17;9.35;;;;;;;23.07;99.83;98735.03;4370971;79;21138;-82
2021/07/15 11:43:51;;;;;;;18.80;9.55;;;;;;;23.17;99.24;98726.22;4480236;78;21085;-83
2021/07/15 11:49:52;;;;;;;15.05;9.15;;;;;;;23.28;98.53;98717.39;4459314;78;21062;-82
2021/07/15 11:55:56;;;;;;;13.13;9.58;;;;;;;23.37;96.56;98713.19;4444805;78;21930;-83
2021/07/15 12:02:37;;;;;;;14.00;7.95;;;;;;;23.88;96.32;98699.27;4431655;78;21010;-82
2021/07/15 12:08:39;;;;;;;11.53;7.85;;;;;;;24.29;95.87;98691.52;4452373;78;21022;-83
2021/07/15 12:14:41;;;;;;;12.85;7.47;;;;;;;24.70;93.36;98687.87;4451748;78;20999;-79
2021/07/15 12:20:53;;;;;;;15.95;8.13;;;;;;;24.96;93.03;98668.55;4456015;78;21019;-82
2021/07/15 12:26:57;;;;;;;14.00;8.00;;;;;;;24.90;88.67;98674.67;4446467;78;21065;-83
2021/07/15 12:33:00;;;;;;;13.45;8.35;;;;;;;24.79;89.75;98656.25;4445731;78;21085;-81
2021/07/15 12:39:06;;;;;;;13.28;7.55;;;;;;;24.75;87.99;98657.05;4476123;77;21043;-83
2021/07/15 12:45:20;;;;;;;10.13;7.45;;;;;;;24.92;89.77;98660.33;4506743;78;20996;-81
2021/07/15 12:51:25;;;;;;;12.25;8.60;;;;;;;24.92;87.57;98653.98;4500225;78;21527;-79
2021/07/15 12:57:27;;;;;;;14.40;8.50;;;;;;;24.86;84.85;98646.85;4492535;78;20994;-81
2021/07/15 13:03:28;;;;;;;12.07;7.67;;;;;;;24.93;87.49;98637.31;4495261;78;21135;-81
2021/07/15 13:09:49;;;;;;;13.13;7.90;;;;;;;24.98;87.27;98650.01;4478854;78;22261;-82
2021/07/15 13:15:54;;;;;;;14.45;8.58;;;;;;;25.00;84.22;98657.93;4484955;78;21049;-83
2021/07/15 13:22:01;;;;;;;12.95;7.85;;;;;;;24.96;81.48;98669.34;4500005;78;21014;-82
2021/07/15 13:28:11;;;;;;;15.83;9.13;;;;;;;24.92;84.21;98659.58;4493016;78;21046;-82
2021/07/15 13:34:13;;;;;;;12.50;8.38;;;;;;;24.98;82.72;98635.25;4494710;78;21081;-82
2021/07/15 13:40:25;;;;;;;15.65;8.70;;;;;;;24.97;82.99;98631.67;4511628;78;20936;-82
2021/07/15 13:46:26;;;;;;;13.32;8.18;;;;;;;25.02;83.85;98627.43;4512136;78;20983;-81
2021/07/15 13:52:31;;;;;;;16.65;8.73;;;;;;;25.08;84.05;98638.10;4511491;78;22279;-82
2021/07/15 13:58:34;;;;;;;13.10;8.90;;;;;;;25.09;84.24;98640.42;4494064;78;21350;-81
2021/07/15 14:04:42;;;;;;;15.13;9.45;;;;;;;25.17;84.25;98631.80;4502810;78;21599;-83
2021/07/15 14:10:45;;;;;;;15.90;9.53;;;;;;;25.32;83.76;98636.80;4496798;78;21011;-82
2021/07/15 14:16:54;;;;;;;13.50;9.10;;;;;;;25.44;83.98;98650.39;4532009;77;20953;-81
2021/07/15 14:22:57;;;;;;;13.03;8.23;;;;;;;25.48;83.79;98642.58;4506183;78;21026;-81
2021/07/15 14:28:58;;;;;;;14.90;9.48;;;;;;;25.52;83.47;98641.74;4490291;78;20984;-80
2021/07/15 14:35:00;;;;;;;13.28;10.50;;;;;;;25.38;84.02;98606.09;4524670;78;20960;-81
2021/07/15 14:41:01;;;;;;;13.35;9.65;;;;;;;25.54;82.28;98621.77;4453609;78;20999;-81
2021/07/15 14:47:03;;;;;;;15.53;9.43;;;;;;;25.54;82.28;98621.77;4382220;79;21023;-82
2021/07/15 14:53:04;;;;;;;14.38;9.88;;;;;;;25.39;83.33;98587.39;4386434;79;21015;-82
2021/07/15 14:59:05;;;;;;;16.48;10.28;;;;;;;25.39;83.33;98587.39;4391851;79;21054;-82
2021/07/15 15:05:11;;;;;;;13.85;9.28;;;;;;;25.48;82.47;98606.15;4402153;79;21065;-81
2021/07/15 15:11:12;;;;;;;16.77;10.13;;;;;;;25.48;82.47;98606.15;4398271;79;21026;-81
2021/07/15 15:17:13;;;;;;;19.40;11.57;;;;;;;25.55;82.92;98602.94;4397959;79;21145;-81
2021/07/15 15:23:15;;;;;;;25.32;11.05;;;;;;;25.55;83.33;98598.12;4411644;79;31375;-81
2021/07/15 15:29:16;;;;;;;18.27;12.40;;;;;;;25.50;82.98;98584.00;4412725;79;21054;-80
2021/07/15 15:35:18;;;;;;;16.60;11.25;;;;;;;25.50;82.98;98584.00;4415568;79;21062;-81
2021/07/15 15:41:19;;;;;;;16.82;11.68;;;;;;;25.46;83.23;98573.01;4417460;78;21043;-82
2021/07/15 15:47:20;;;;;;;18.32;11.73;;;;;;;25.43;82.12;98573.98;4410111;79;21563;-82
2021/07/15 15:53:21;;;;;;;16.82;11.80;;;;;;;25.43;82.12;98573.98;4410088;79;21014;-81
2021/07/15 15:59:23;;;;;;;18.40;11.60;;;;;;;25.38;82.81;98582.28;4408694;79;21006;-81
2021/07/15 16:05:24;;;;;;;17.80;12.80;;;;;;;25.30;82.88;98577.67;4411277;79;21060;-82
2021/07/15 16:11:26;;;;;;;16.20;11.15;;;;;;;25.33;81.21;98575.91;4396366;79;21061;-81
2021/07/15 16:17:27;;;;;;;19.70;11.18;;;;;;;25.33;82.28;98595.53;4275998;78;9999802;-81
2021/07/15 16:23:28;;;;;;;18.15;10.93;;;;;;;25.24;82.42;98591.42;4390729;79;21012;-80
2021/07/15 16:29:30;;;;;;;14.80;11.18;;;;;;;25.18;82.58;98587.77;4396473;79;21062;-83
2021/07/15 16:35:31;;;;;;;21.62;11.40;;;;;;;25.17;82.88;98577.80;4264289;82;21010;-81
2021/07/15 16:41:33;;;;;;;17.50;11.85;;;;;;;25.15;83.09;98571.92;4402927;79;21031;-80
2021/07/15 16:47:34;;;;;;;15.35;11.10;;;;;;;25.12;83.28;98575.69;4389148;79;21014;-82
2021/07/15 16:53:35;;;;;;;14.23;11.15;;;;;;;25.06;83.37;98574.17;4376508;79;21582;-82
2021/07/15 16:59:37;;;;;;;14.03;10.88;;;;;;;25.03;83.34;98568.14;4378367;80;21533;-80
2021/07/15 17:05:43;;;;;;;17.50;12.00;;;;;;;24.97;83.49;98568.67;4468284;78;21541;-81
2021/07/15 17:11:44;;;;;;;16.25;12.20;;;;;;;24.92;83.57;98570.73;4449988;78;21013;-82
2021/07/15 17:17:45;;;;;;;16.90;12.78;;;;;;;24.88;83.73;98571.56;4464391;78;21575;-82
2021/07/15 17:23:47;;;;;;;22.37;12.73;;;;;;;24.86;83.88;98581.06;4468196;78;22075;-82
2021/07/15 17:29:48;;;;;;;15.32;11.93;;;;;;;24.82;84.15;98588.89;4473880;78;21038;-82
2021/07/15 17:35:50;;;;;;;23.00;12.55;;;;;;;24.74;84.27;98590.52;4467024;78;20984;-82
2021/07/15 17:41:52;;;;;;;15.68;12.50;;;;;;;24.64;84.42;98614.97;4481157;78;21000;-80
2021/07/15 17:47:53;;;;;;;19.20;12.95;;;;;;;24.57;84.55;98628.55;4502901;78;21130;-82
2021/07/15 17:53:54;;;;;;;22.15;13.13;;;;;;;24.45;84.70;98621.16;4500463;78;20979;-80
2021/07/15 17:59:56;;;;;;;20.52;13.38;;;;;;;24.33;85.08;98615.97;4473827;78;21004;-81
2021/07/15 18:05:58;;;;;;;24.23;14.55;;;;;;;24.23;85.38;98623.47;4476724;78;21044;-81
2021/07/15 18:11:59;;;;;;;18.25;13.80;;;;;;;24.11;85.68;98611.28;4490660;78;20971;-81
2021/07/15 18:18:00;;;;;;;21.40;13.72;;;;;;;24.04;85.86;98607.43;4494384;78;21067;-80
2021/07/15 18:24:03;;;;;;;17.52;13.30;;;;;;;23.97;86.17;98598.63;4485238;78;21018;-81
2021/07/15 18:30:07;;;;;;;19.98;14.50;;;;;;;23.87;86.37;98605.46;4499979;78;21026;-81
2021/07/15 18:36:09;;;;;;;21.85;14.95;;;;;;;23.74;86.74;98604.28;4478193;78;21087;-81
2021/07/15 18:42:12;;;;;;;23.02;15.35;;;;;;;23.66;87.07;98603.09;4429203;78;20998;-81
2021/07/15 18:48:15;;;;;;;24.32;14.85;;;;;;;23.54;87.37;98600.50;4254971;82;21006;-81
2021/07/15 18:54:16;;;;;;;24.35;15.15;;;;;;;23.42;87.65;98605.64;4251638;82;20998;-81
2021/07/15 19:00:25;;;;;;;25.80;16.12;;;;;;;23.26;88.12;98625.56;4243095;82;21969;-81
2021/07/15 19:06:26;;;;;;;28.83;17.27;;;;;;;23.06;88.31;98629.59;4245958;83;21052;-81
2021/07/15 19:12:28;;;;;;;28.05;18.30;;;;;;;22.95;89.07;98641.84;4295803;81;21138;-81
2021/07/15 19:18:29;;;;;;;21.40;16.77;;;;;;;22.93;89.41;98668.05;4360794;79;21034;-81
2021/07/15 19:24:30;;;;;;;23.57;16.40;;;;;;;22.84;89.57;98672.23;4362527;80;21031;-81
2021/07/15 19:30:33;;;;;;;23.85;17.77;;;;;;;22.76;90.12;98664.02;4365981;80;21076;-81
2021/07/15 19:36:35;;;;;;;25.80;16.82;;;;;;;22.73;90.40;98682.30;4377314;80;21000;-81
2021/07/15 19:42:37;;;;;;;24.87;16.70;;;;;;;22.65;90.86;98688.02;4428589;77;21657;-81
2021/07/15 19:48:39;;;;;;;27.27;18.25;;;;;;;22.60;90.99;98687.23;4510114;78;21662;-80
2021/07/15 19:54:40;;;;;;;30.52;18.40;;;;;;;22.56;91.56;98667.09;4490500;78;21018;-81
2021/07/15 20:00:42;;;;;;;19.05;14.75;;;;;;;22.53;91.93;98667.41;4496394;78;21526;-81
2021/07/15 20:06:43;;;;;;;23.38;15.90;;;;;;;22.49;92.04;98685.50;4485542;78;21020;-81
2021/07/15 20:12:49;;;;;;;22.52;15.93;;;;;;;22.46;92.31;98697.55;4473818;78;21037;-80
2021/07/15 20:18:50;;;;;;;30.50;18.45;;;;;;;22.10;92.65;98674.53;4501347;78;21018;-81
2021/07/15 20:24:52;;;;;;;28.70;17.85;;;;;;;22.10;92.65;98674.53;4487558;78;21516;-81
2021/07/15 20:30:54;;;;;;;29.15;16.15;;;;;;;22.17;93.21;98690.98;4496396;78;21030;-81
2021/07/15 20:36:55;;;;;;;26.75;16.48;;;;;;;22.16;93.58;98694.98;4513350;78;21059;-81
2021/07/15 20:42:56;;;;;;;21.30;15.32;;;;;;;22.18;93.70;98710.64;4456157;78;21089;-81
2021/07/15 20:48:57;;;;;;;25.52;15.70;;;;;;;22.19;93.81;98720.55;4414848;79;21058;-81
2021/07/15 20:54:59;;;;;;;25.85;15.08;;;;;;;22.18;94.06;98730.77;4415007;79;21614;-81
2021/07/15 21:01:00;;;;;;;21.68;15.40;;;;;;;22.20;94.40;98743.03;4404359;78;21038;-81
2021/07/15 21:07:02;;;;;;;24.10;15.05;;;;;;;22.27;94.46;98751.73;4406367;79;21553;-80
2021/07/15 21:13:04;;;;;;;27.30;15.72;;;;;;;22.12;94.66;98768.84;4410056;79;20998;-81
2021/07/15 21:19:05;;;;;;;24.10;14.58;;;;;;;22.08;94.79;98782.91;4410475;77;21003;-81
2021/07/15 21:25:09;;;;;;;27.73;13.93;;;;;;;22.14;95.01;98790.08;4416229;79;21093;-80
2021/07/15 21:31:10;;;;;;;33.05;12.78;;;;;;;22.12;95.06;98784.97;4330049;81;21036;-80
2021/07/15 21:37:11;;;;;;;15.05;10.23;;;;;;;22.19;95.03;98766.55;4264203;81;21034;-80
2021/07/15 21:43:13;;;;;;;19.48;11.60;;;;;;;22.07;94.43;98749.31;4290151;81;21019;-80
2021/07/15 21:49:14;;;;;;;16.50;11.38;;;;;;;21.94;95.03;98743.05;4272499;81;21093;-81
2021/07/15 21:55:16;;;;;;;13.90;9.85;;;;;;;21.92;94.83;98753.11;4268192;81;21038;-80
2021/07/15 22:01:18;;;;;;;21.87;10.68;;;;;;;21.91;94.71;98737.63;4280425;81;21562;-81
2021/07/15 22:07:20;;;;;;;19.30;9.98;;;;;;;21.77;94.98;98735.39;4294865;81;21008;-83
2021/07/15 22:13:21;;;;;;;23.70;10.75;;;;;;;21.72;94.51;98738.88;4276229;81;21871;-80
2021/07/15 22:19:23;;;;;;;18.32;10.90;;;;;;;21.69;94.91;98721.69;4361687;79;21039;-81
2021/07/15 22:25:25;;;;;;;22.25;12.25;;;;;;;21.50;95.50;98707.48;4367952;79;21061;-82
2021/07/15 22:31:26;;;;;;;18.35;12.80;;;;;;;21.50;95.31;98710.27;4343698;80;20997;-81
2021/07/15 22:37:28;;;;;;;16.80;11.78;;;;;;;21.26;96.25;98701.44;4376273;80;21027;-81
2021/07/15 22:43:29;;;;;;;20.62;13.43;;;;;;;21.12;97.05;98735.35;4387810;79;21041;-81
2021/07/15 22:49:30;;;;;;;22.05;13.48;;;;;;;21.17;97.25;98750.84;4378609;79;21043;-81
2021/07/15 22:55:32;;;;;;;22.75;12.28;;;;;;;21.27;97.29;98729.44;4380311;78;21527;-80
2021/07/15 23:01:33;;;;;;;18.57;10.23;;;;;;;21.26;97.12;98749.55;4380324;79;21091;-80
2021/07/15 23:07:40;;;;;;;14.87;8.28;;;;;;;21.14;97.04;98767.06;4378285;80;21601;-81
2021/07/15 23:13:38;;;;;;;16.87;9.70;;;;;;;20.93;97.39;98760.03;4378604;78;21088;-81
2021/07/15 23:19:39;;;;;;;17.65;8.80;;;;;;;20.79;97.31;98753.56;4382240;79;21628;-81
2021/07/15 23:25:42;;;;;;;20.57;9.08;;;;;;;20.65;97.66;98760.39;4380278;79;20984;-80
2021/07/15 23:31:43;;;;;;;14.63;8.35;;;;;;;20.73;97.88;98750.59;4378854;79;21005;-80
2021/07/15 23:37:44;;;;;;;18.27;8.83;;;;;;;20.72;97.77;98715.63;4382806;79;21115;-80
2021/07/15 23:43:46;;;;;;;14.05;8.68;;;;;;;20.79;97.97;98694.55;4392073;78;21075;-81
2021/07/15 23:49:47;;;;;;;12.68;8.08;;;;;;;20.72;97.27;98663.42;4402262;79;21082;-79
2021/07/15 23:55:48;;;;;;;13.90;8.63;;;;;;;20.39;97.63;98651.05;4408499;79;22222;-80
